createdAt,value
2023-03-02T00:00:12.967Z,2.76
2023-03-02T00:01:12.958Z,2.77
2023-03-02T00:02:13.012Z,2.79
2023-03-02T00:03:12.931Z,2.80
2023-03-02T00:04:12.920Z,2.80
2023-03-02T00:05:12.897Z,2.80
2023-03-02T00:06:12.889Z,2.82
2023-03-02T00:07:12.888Z,2.83
2023-03-02T00:08:12.858Z,2.83
2023-03-02T00:09:12.850Z,2.83
2023-03-02T00:10:12.841Z,2.85
2023-03-02T00:11:12.807Z,2.87
2023-03-02T00:12:12.831Z,2.85
2023-03-02T00:13:12.798Z,2.83
2023-03-02T00:14:12.786Z,2.85
2023-03-02T00:15:12.772Z,2.82
2023-03-02T00:16:12.813Z,2.80
2023-03-02T00:17:12.747Z,2.83
2023-03-02T00:18:12.731Z,2.82
2023-03-02T00:19:12.721Z,2.82
2023-03-02T00:20:12.707Z,2.82
2023-03-02T00:21:12.705Z,2.80
2023-03-02T00:22:12.708Z,2.79
2023-03-02T00:23:12.679Z,2.77
2023-03-02T00:24:12.648Z,2.80
2023-03-02T00:25:12.638Z,2.82
2023-03-02T00:26:12.619Z,2.80
2023-03-02T00:27:12.607Z,2.82
2023-03-02T00:28:12.627Z,2.82
2023-03-02T00:29:12.589Z,2.79
2023-03-02T00:30:12.568Z,2.79
2023-03-02T00:31:12.592Z,2.80
2023-03-02T00:32:12.573Z,2.77
2023-03-02T00:33:12.545Z,2.76
2023-03-02T00:34:12.531Z,2.73
2023-03-02T00:35:12.505Z,2.72
2023-03-02T00:36:12.494Z,2.72
2023-03-02T00:37:12.478Z,2.69
2023-03-02T00:38:12.497Z,2.72
2023-03-02T00:39:12.453Z,2.73
2023-03-02T00:40:12.451Z,2.72
2023-03-02T00:41:12.457Z,2.70
2023-03-02T00:42:12.542Z,2.69
2023-03-02T00:43:12.482Z,2.72
2023-03-02T00:44:12.386Z,2.72
2023-03-02T00:45:12.377Z,2.72
2023-03-02T00:46:12.405Z,2.70
2023-03-02T00:47:12.344Z,2.69
2023-03-02T00:48:12.361Z,2.69
2023-03-02T00:49:12.326Z,2.68
2023-03-02T00:50:12.348Z,2.65
2023-03-02T00:51:12.295Z,2.64
2023-03-02T00:52:12.286Z,2.62
2023-03-02T00:53:12.297Z,2.62
2023-03-02T00:54:12.263Z,2.62
2023-03-02T00:55:12.236Z,2.59
2023-03-02T00:56:12.232Z,2.61
2023-03-02T00:57:12.222Z,2.62
2023-03-02T00:58:12.232Z,2.59
2023-03-02T00:59:12.183Z,2.59
2023-03-02T01:00:12.186Z,2.55
2023-03-02T01:01:12.162Z,2.54
2023-03-02T01:02:12.182Z,2.51
2023-03-02T01:03:12.219Z,2.44
2023-03-02T01:04:12.136Z,2.40
2023-03-02T01:05:12.120Z,2.41
2023-03-02T01:06:12.105Z,2.39
2023-03-02T01:07:12.090Z,2.37
2023-03-02T01:08:12.095Z,2.34
2023-03-02T01:09:12.058Z,2.32
2023-03-02T01:10:12.057Z,2.30
2023-03-02T01:11:12.043Z,2.23
2023-03-02T01:12:12.025Z,2.23
2023-03-02T01:13:12.048Z,2.22
2023-03-02T01:14:12.006Z,2.19
2023-03-02T01:15:11.989Z,2.18
2023-03-02T01:16:12.108Z,2.16
2023-03-02T01:17:11.959Z,2.14
2023-03-02T01:18:12.264Z,2.14
2023-03-02T01:19:11.963Z,2.12
2023-03-02T01:20:11.950Z,2.12
2023-03-02T01:21:11.920Z,2.07
2023-03-02T01:22:11.899Z,2.05
2023-03-02T01:23:11.886Z,2.07
2023-03-02T01:24:11.900Z,2.05
2023-03-02T01:25:11.880Z,2.05
2023-03-02T01:26:11.871Z,2.05
2023-03-02T01:27:11.833Z,2.04
2023-03-02T01:28:11.800Z,2.03
2023-03-02T01:29:11.819Z,1.97
2023-03-02T01:30:11.800Z,1.93
2023-03-02T01:31:11.878Z,1.86
2023-03-02T01:32:11.819Z,1.82
2023-03-02T01:33:11.756Z,1.81
2023-03-02T01:34:11.775Z,1.78
2023-03-02T01:35:11.731Z,1.76
2023-03-02T01:36:11.720Z,1.75
2023-03-02T01:37:11.710Z,1.75
2023-03-02T01:38:11.790Z,1.74
2023-03-02T01:39:11.700Z,1.68
2023-03-02T01:40:11.659Z,1.66
2023-03-02T01:41:11.660Z,1.64
2023-03-02T01:42:11.642Z,1.61
2023-03-02T01:43:11.632Z,1.60
2023-03-02T01:44:11.628Z,1.56
2023-03-02T01:45:11.600Z,1.53
2023-03-02T01:46:11.659Z,1.46
2023-03-02T01:47:11.585Z,1.40
2023-03-02T01:48:11.555Z,1.36
2023-03-02T01:49:11.567Z,1.34
2023-03-02T01:50:11.536Z,1.30
2023-03-02T01:51:11.531Z,1.25
2023-03-02T01:52:11.512Z,1.22
2023-03-02T01:53:11.496Z,1.16
2023-03-02T01:54:11.495Z,1.13
2023-03-02T01:55:11.466Z,1.12
2023-03-02T01:56:11.467Z,1.09
2023-03-02T01:57:11.447Z,1.04
2023-03-02T01:58:11.425Z,0.96
2023-03-02T01:59:11.441Z,0.96
2023-03-02T02:00:11.409Z,0.96
2023-03-02T02:01:11.417Z,1.02
2023-03-02T02:02:11.380Z,1.03
2023-03-02T02:03:11.370Z,1.03
2023-03-02T02:04:11.396Z,1.03
2023-03-02T02:05:11.342Z,1.02
2023-03-02T02:06:11.336Z,1.02
2023-03-02T02:07:11.318Z,1.02
2023-03-02T02:08:11.299Z,1.02
2023-03-02T02:09:11.310Z,1.00
2023-03-02T02:10:11.282Z,0.99
2023-03-02T02:11:11.263Z,1.02
2023-03-02T02:12:11.245Z,1.04
2023-03-02T02:13:11.269Z,1.07
2023-03-02T02:14:11.237Z,1.10
2023-03-02T02:15:11.216Z,1.12
2023-03-02T02:16:11.260Z,1.13
2023-03-02T02:17:11.192Z,1.14
2023-03-02T02:18:11.179Z,1.14
2023-03-02T02:19:11.181Z,1.18
2023-03-02T02:20:11.147Z,1.20
2023-03-02T02:21:11.125Z,1.21
2023-03-02T02:22:11.119Z,1.21
2023-03-02T02:23:11.103Z,1.21
2023-03-02T02:24:11.105Z,1.21
2023-03-02T02:25:11.074Z,1.20
2023-03-02T02:26:11.074Z,1.21
2023-03-02T02:27:11.057Z,1.20
2023-03-02T02:28:11.042Z,1.21
2023-03-02T02:29:11.064Z,1.24
2023-03-02T02:30:11.014Z,1.22
2023-03-02T02:31:10.996Z,1.21
2023-03-02T02:32:11.162Z,1.21
2023-03-02T02:33:10.972Z,1.20
2023-03-02T02:34:10.953Z,1.21
2023-03-02T02:35:10.964Z,1.22
2023-03-02T02:36:11.004Z,1.18
2023-03-02T02:37:10.924Z,1.18
2023-03-02T02:38:10.912Z,1.14
2023-03-02T02:39:10.894Z,1.09
2023-03-02T02:40:10.894Z,1.06
2023-03-02T02:41:10.874Z,1.02
2023-03-02T02:42:10.854Z,0.94
2023-03-02T02:43:10.842Z,0.88
2023-03-02T02:44:10.842Z,0.78
2023-03-02T02:45:10.834Z,0.73
2023-03-02T02:46:10.867Z,0.68
2023-03-02T02:47:10.793Z,0.67
2023-03-02T02:48:10.772Z,0.66
2023-03-02T02:49:10.764Z,0.61
2023-03-02T02:50:10.773Z,0.56
2023-03-02T02:51:10.732Z,0.49
2023-03-02T02:52:10.723Z,0.44
2023-03-02T02:53:10.717Z,0.44
2023-03-02T02:54:10.692Z,0.42
2023-03-02T02:55:10.703Z,0.37
2023-03-02T02:56:10.683Z,0.40
2023-03-02T02:57:10.662Z,0.45
2023-03-02T02:58:10.642Z,0.44
2023-03-02T02:59:10.632Z,0.44
2023-03-02T03:00:10.642Z,0.42
2023-03-02T03:01:10.634Z,0.37
2023-03-02T03:02:10.593Z,0.33
2023-03-02T03:03:10.583Z,0.33
2023-03-02T03:04:10.590Z,0.31
2023-03-02T03:05:10.571Z,0.34
2023-03-02T03:06:10.550Z,0.36
2023-03-02T03:07:10.542Z,0.36
2023-03-02T03:08:10.512Z,0.37
2023-03-02T03:09:10.501Z,0.39
2023-03-02T03:10:10.533Z,0.39
2023-03-02T03:11:10.481Z,0.37
2023-03-02T03:12:10.462Z,0.37
2023-03-02T03:13:10.450Z,0.37
2023-03-02T03:14:10.456Z,0.39
2023-03-02T03:15:10.420Z,0.37
2023-03-02T03:16:10.443Z,0.33
2023-03-02T03:17:10.428Z,0.33
2023-03-02T03:18:10.400Z,0.29
2023-03-02T03:19:10.382Z,0.24
2023-03-02T03:20:10.378Z,0.23
2023-03-02T03:21:10.368Z,0.19
2023-03-02T03:22:10.390Z,0.16
2023-03-02T03:23:10.325Z,0.12
2023-03-02T03:24:10.351Z,0.11
2023-03-02T03:25:10.299Z,0.12
2023-03-02T03:26:10.309Z,0.13
2023-03-02T03:27:10.268Z,0.15
2023-03-02T03:28:10.262Z,0.15
2023-03-02T03:29:10.242Z,0.12
2023-03-02T03:30:10.222Z,0.12
2023-03-02T03:31:10.330Z,0.11
2023-03-02T03:32:10.252Z,0.12
2023-03-02T03:33:10.181Z,0.12
2023-03-02T03:34:10.172Z,0.15
2023-03-02T03:35:10.161Z,0.15
2023-03-02T03:36:10.171Z,0.19
2023-03-02T03:37:10.130Z,0.19
2023-03-02T03:38:10.124Z,0.20
2023-03-02T03:39:10.099Z,0.20
2023-03-02T03:40:10.087Z,0.26
2023-03-02T03:41:10.105Z,0.19
2023-03-02T03:42:10.081Z,0.12
2023-03-02T03:43:10.050Z,0.06
2023-03-02T03:44:10.052Z,0.06
2023-03-02T03:45:10.032Z,0.06
2023-03-02T03:46:10.101Z,0.06
2023-03-02T03:47:10.000Z,0.01
2023-03-02T03:48:09.990Z,0.01
2023-03-02T03:49:09.979Z,0.01
2023-03-02T03:50:09.959Z,0.00
2023-03-02T03:51:09.978Z,0.01
2023-03-02T03:52:09.960Z,-0.02
2023-03-02T03:53:09.921Z,-0.03
2023-03-02T03:54:09.914Z,0.00
2023-03-02T03:55:09.897Z,0.00
2023-03-02T03:56:09.916Z,0.00
2023-03-02T03:57:09.884Z,0.00
2023-03-02T03:58:09.926Z,-0.03
2023-03-02T03:59:09.849Z,-0.03
2023-03-02T04:00:09.838Z,-0.05
2023-03-02T04:01:09.870Z,-0.05
2023-03-02T04:02:10.024Z,-0.02
2023-03-02T04:03:09.797Z,-0.03
2023-03-02T04:04:09.788Z,-0.05
2023-03-02T04:05:09.765Z,-0.06
2023-03-02T04:06:09.787Z,-0.05
2023-03-02T04:07:09.745Z,-0.09
2023-03-02T04:08:09.745Z,-0.13
2023-03-02T04:09:09.730Z,-0.18
2023-03-02T04:10:09.714Z,-0.17
2023-03-02T04:11:09.703Z,-0.18
2023-03-02T04:12:09.682Z,-0.17
2023-03-02T04:13:09.664Z,-0.17
2023-03-02T04:14:09.666Z,-0.17
2023-03-02T04:15:09.648Z,-0.20
2023-03-02T04:16:09.758Z,-0.20
2023-03-02T04:17:09.625Z,-0.21
2023-03-02T04:18:09.617Z,-0.23
2023-03-02T04:19:09.733Z,-0.21
2023-03-02T04:20:09.580Z,-0.21
2023-03-02T04:21:09.589Z,-0.24
2023-03-02T04:22:09.551Z,-0.26
2023-03-02T04:23:09.541Z,-0.28
2023-03-02T04:24:09.547Z,-0.35
2023-03-02T04:25:09.522Z,-0.38
2023-03-02T04:26:09.539Z,-0.38
2023-03-02T04:27:09.492Z,-0.36
2023-03-02T04:28:09.485Z,-0.35
2023-03-02T04:29:09.475Z,-0.36
2023-03-02T04:30:09.457Z,-0.33
2023-03-02T04:31:09.485Z,-0.33
2023-03-02T04:32:09.472Z,-0.30
2023-03-02T04:33:09.429Z,-0.27
2023-03-02T04:34:09.427Z,-0.26
2023-03-02T04:35:09.400Z,-0.23
2023-03-02T04:36:09.421Z,-0.23
2023-03-02T04:37:09.380Z,-0.24
2023-03-02T04:38:09.368Z,-0.23
2023-03-02T04:39:09.357Z,-0.23
2023-03-02T04:40:09.346Z,-0.23
2023-03-02T04:41:09.361Z,-0.24
2023-03-02T04:42:09.318Z,-0.23
2023-03-02T04:43:09.304Z,-0.21
2023-03-02T04:44:09.295Z,-0.24
2023-03-02T04:45:09.272Z,-0.24
2023-03-02T04:46:09.356Z,-0.26
2023-03-02T04:47:09.255Z,-0.31
2023-03-02T04:48:09.245Z,-0.41
2023-03-02T04:49:09.223Z,-0.45
2023-03-02T04:50:09.257Z,-0.42
2023-03-02T04:51:09.219Z,-0.44
2023-03-02T04:52:09.184Z,-0.48
2023-03-02T04:53:09.181Z,-0.49
2023-03-02T04:54:09.168Z,-0.49
2023-03-02T04:55:09.167Z,-0.53
2023-03-02T04:56:09.203Z,-0.51
2023-03-02T04:57:09.135Z,-0.54
2023-03-02T04:58:09.115Z,-0.53
2023-03-02T04:59:09.096Z,-0.51
2023-03-02T05:00:09.096Z,-0.49
2023-03-02T05:01:09.097Z,-0.45
2023-03-02T05:02:09.159Z,-0.44
2023-03-02T05:03:09.043Z,-0.38
2023-03-02T05:04:09.066Z,-0.38
2023-03-02T05:05:09.024Z,-0.36
2023-03-02T05:06:09.027Z,-0.38
2023-03-02T05:07:09.012Z,-0.42
2023-03-02T05:08:08.985Z,-0.46
2023-03-02T05:09:08.977Z,-0.48
2023-03-02T05:10:08.954Z,-0.51
2023-03-02T05:11:08.943Z,-0.54
2023-03-02T05:12:08.951Z,-0.54
2023-03-02T05:13:08.913Z,-0.53
2023-03-02T05:14:08.900Z,-0.53
2023-03-02T05:15:08.890Z,-0.54
2023-03-02T05:16:08.935Z,-0.57
2023-03-02T05:17:08.878Z,-0.57
2023-03-02T05:18:08.866Z,-0.56
2023-03-02T05:19:08.848Z,-0.54
2023-03-02T05:20:08.833Z,-0.54
2023-03-02T05:21:08.811Z,-0.53
2023-03-02T05:22:08.831Z,-0.56
2023-03-02T05:23:08.804Z,-0.60
2023-03-02T05:24:08.822Z,-0.60
2023-03-02T05:25:08.761Z,-0.62
2023-03-02T05:26:08.761Z,-0.62
2023-03-02T05:27:08.752Z,-0.62
2023-03-02T05:28:08.750Z,-0.63
2023-03-02T05:29:08.712Z,-0.67
2023-03-02T05:30:08.701Z,-0.74
2023-03-02T05:31:08.721Z,-0.80
2023-03-02T05:32:08.733Z,-0.81
2023-03-02T05:33:08.661Z,-0.78
2023-03-02T05:34:08.659Z,-0.75
2023-03-02T05:35:08.641Z,-0.77
2023-03-02T05:36:08.639Z,-0.81
2023-03-02T05:37:08.631Z,-0.82
2023-03-02T05:38:08.601Z,-0.85
2023-03-02T05:39:08.588Z,-0.87
2023-03-02T05:40:08.570Z,-0.93
2023-03-02T05:41:08.627Z,-0.87
2023-03-02T05:42:08.573Z,-0.85
2023-03-02T05:43:08.535Z,-0.87
2023-03-02T05:44:08.527Z,-0.84
2023-03-02T05:45:08.500Z,-0.81
2023-03-02T05:46:08.509Z,-0.81
2023-03-02T05:47:08.559Z,-0.78
2023-03-02T05:48:08.480Z,-0.75
2023-03-02T05:49:08.458Z,-0.77
2023-03-02T05:50:08.440Z,-0.80
2023-03-02T05:51:08.431Z,-0.84
2023-03-02T05:52:15.600Z,-0.89
2023-03-02T05:53:08.417Z,-0.91
2023-03-02T05:54:08.394Z,-0.97
2023-03-02T05:55:08.390Z,-1.03
2023-03-02T05:56:08.379Z,-1.04
2023-03-02T05:57:08.412Z,-1.06
2023-03-02T05:58:08.342Z,-1.11
2023-03-02T05:59:08.342Z,-1.09
2023-03-02T06:00:08.320Z,-1.04
2023-03-02T06:01:08.312Z,-0.99
2023-03-02T06:02:08.351Z,-0.93
2023-03-02T06:03:08.344Z,-0.93
2023-03-02T06:04:08.275Z,-0.89
2023-03-02T06:05:08.273Z,-0.87
2023-03-02T06:06:08.264Z,-0.84
2023-03-02T06:07:08.265Z,-0.84
2023-03-02T06:08:08.235Z,-0.85
2023-03-02T06:09:08.219Z,-0.89
2023-03-02T06:10:08.201Z,-0.89
2023-03-02T06:11:08.196Z,-0.89
2023-03-02T06:12:08.177Z,-0.84
2023-03-02T06:13:08.157Z,-0.80
2023-03-02T06:14:08.137Z,-0.80
2023-03-02T06:15:08.143Z,-0.77
2023-03-02T06:16:08.208Z,-0.77
2023-03-02T06:17:08.118Z,-0.78
2023-03-02T06:18:08.099Z,-0.77
2023-03-02T06:19:08.084Z,-0.77
2023-03-02T06:20:08.060Z,-0.77
2023-03-02T06:21:08.057Z,-0.75
2023-03-02T06:22:08.132Z,-0.78
2023-03-02T06:23:08.034Z,-0.49
2023-03-02T06:24:08.026Z,0.61
2023-03-02T06:25:08.006Z,1.58
2023-03-02T06:26:08.039Z,1.74
2023-03-02T06:27:07.982Z,2.25
2023-03-02T06:28:07.976Z,2.87
2023-03-02T06:29:07.975Z,2.85
2023-03-02T06:30:08.083Z,2.19
2023-03-02T06:31:07.974Z,1.75
2023-03-02T06:32:08.120Z,1.39
2023-03-02T06:33:07.907Z,1.07
2023-03-02T06:34:07.887Z,0.76
2023-03-02T06:35:08.069Z,0.52
2023-03-02T06:36:08.120Z,0.34
2023-03-02T06:37:07.870Z,0.19
2023-03-02T06:38:07.856Z,0.02
2023-03-02T06:39:07.828Z,-0.07
2023-03-02T06:40:07.915Z,-0.20
2023-03-02T06:41:07.827Z,-0.27
2023-03-02T06:42:07.791Z,-0.35
2023-03-02T06:43:07.798Z,-0.39
2023-03-02T06:44:07.780Z,-0.42
2023-03-02T06:45:07.999Z,-0.46
2023-03-02T06:46:07.789Z,-0.49
2023-03-02T06:47:07.725Z,-0.49
2023-03-02T06:48:07.942Z,-0.62
2023-03-02T06:49:07.897Z,-0.67
2023-03-02T06:50:07.678Z,-0.70
2023-03-02T06:51:07.752Z,-0.72
2023-03-02T06:52:07.659Z,-0.67
2023-03-02T06:53:07.660Z,-0.67
2023-03-02T06:54:07.627Z,-0.66
2023-03-02T06:55:07.622Z,-0.63
2023-03-02T06:56:08.632Z,-0.59
2023-03-02T06:57:07.599Z,-0.56
2023-03-02T06:58:07.597Z,-0.51
2023-03-02T06:59:08.331Z,-0.53
2023-03-02T07:00:07.572Z,-0.51
2023-03-02T07:01:07.573Z,-0.56
2023-03-02T07:02:07.493Z,-0.56
2023-03-02T07:03:07.531Z,-0.57
2023-03-02T07:04:07.599Z,-0.54
2023-03-02T07:05:07.541Z,-0.51
2023-03-02T07:06:07.485Z,-0.49
2023-03-02T07:07:07.479Z,-0.46
2023-03-02T07:08:07.468Z,-0.42
2023-03-02T07:09:07.465Z,-0.41
2023-03-02T07:10:07.440Z,-0.39
2023-03-02T07:11:07.423Z,-0.38
2023-03-02T07:12:07.402Z,-0.39
2023-03-02T07:13:09.144Z,-0.38
2023-03-02T07:14:07.369Z,-0.35
2023-03-02T07:15:07.361Z,-0.31
2023-03-02T07:16:07.353Z,-0.30
2023-03-02T07:17:07.404Z,-0.31
2023-03-02T07:18:07.362Z,-0.28
2023-03-02T07:19:07.311Z,-0.26
2023-03-02T07:20:07.304Z,-0.24
2023-03-02T07:21:07.290Z,-0.23
2023-03-02T07:22:07.262Z,-0.20
2023-03-02T07:23:07.279Z,-0.15
2023-03-02T07:24:07.299Z,-0.12
2023-03-02T07:25:07.239Z,-0.09
2023-03-02T07:26:07.216Z,-0.05
2023-03-02T07:27:07.222Z,-0.02
2023-03-02T07:28:07.217Z,0.01
2023-03-02T07:29:07.179Z,0.02
2023-03-02T07:30:07.232Z,0.06
2023-03-02T07:31:07.199Z,0.05
2023-03-02T07:32:07.225Z,0.02
2023-03-02T07:33:07.167Z,0.02
2023-03-02T07:34:07.124Z,0.06
2023-03-02T07:35:07.147Z,0.11
2023-03-02T07:36:07.095Z,0.15
2023-03-02T07:37:07.084Z,0.20
2023-03-02T07:38:07.089Z,0.23
2023-03-02T07:39:07.066Z,0.29
2023-03-02T07:40:07.038Z,0.34
2023-03-02T07:41:07.034Z,0.37
2023-03-02T07:42:07.031Z,0.42
2023-03-02T07:43:07.021Z,0.44
2023-03-02T07:44:06.992Z,0.48
2023-03-02T07:45:06.987Z,0.52
2023-03-02T07:46:07.055Z,0.58
2023-03-02T07:47:06.985Z,0.61
2023-03-02T07:48:06.957Z,0.66
2023-03-02T07:49:06.965Z,0.67
2023-03-02T07:50:06.920Z,0.73
2023-03-02T07:51:06.910Z,0.76
2023-03-02T07:52:06.884Z,0.78
2023-03-02T07:53:07.863Z,0.84
2023-03-02T07:54:06.925Z,0.88
2023-03-02T07:55:06.837Z,0.96
2023-03-02T07:56:06.836Z,1.00
2023-03-02T07:57:06.870Z,1.06
2023-03-02T07:58:06.819Z,1.10
2023-03-02T07:59:06.797Z,1.20
2023-03-02T08:00:06.767Z,1.27
2023-03-02T08:01:06.781Z,1.34
2023-03-02T08:02:06.788Z,1.40
2023-03-02T08:03:06.770Z,1.49
2023-03-02T08:04:06.760Z,1.56
2023-03-02T08:05:06.738Z,1.64
2023-03-02T08:06:06.711Z,1.70
2023-03-02T08:07:06.690Z,1.76
2023-03-02T08:08:06.682Z,1.81
2023-03-02T08:09:06.708Z,1.84
2023-03-02T08:10:06.658Z,1.93
2023-03-02T08:11:06.639Z,1.98
2023-03-02T08:12:06.633Z,2.04
2023-03-02T08:13:06.619Z,2.08
2023-03-02T08:14:06.621Z,2.12
2023-03-02T08:15:06.592Z,2.21
2023-03-02T08:16:06.715Z,2.25
2023-03-02T08:17:06.572Z,2.28
2023-03-02T08:18:06.560Z,2.34
2023-03-02T08:19:06.565Z,2.39
2023-03-02T08:20:06.528Z,2.43
2023-03-02T08:21:06.515Z,2.50
2023-03-02T08:22:06.511Z,2.55
2023-03-02T08:23:06.499Z,2.59
2023-03-02T08:24:06.488Z,2.64
2023-03-02T08:25:06.480Z,2.69
2023-03-02T08:26:06.449Z,2.73
2023-03-02T08:27:06.431Z,2.76
2023-03-02T08:28:06.420Z,2.79
2023-03-02T08:29:06.430Z,2.82
2023-03-02T08:30:06.395Z,2.88
2023-03-02T08:31:06.409Z,2.93
2023-03-02T08:32:06.576Z,2.98
2023-03-02T08:33:07.307Z,3.00
2023-03-02T08:34:06.361Z,3.05
2023-03-02T08:35:06.351Z,3.08
2023-03-02T08:36:06.399Z,3.12
2023-03-02T08:37:06.305Z,3.15
2023-03-02T08:38:06.290Z,3.21
2023-03-02T08:39:06.301Z,3.27
2023-03-02T08:40:06.263Z,3.33
2023-03-02T08:41:06.262Z,3.37
2023-03-02T08:42:06.242Z,3.43
2023-03-02T08:43:08.048Z,3.48
2023-03-02T08:44:06.229Z,3.53
2023-03-02T08:45:06.203Z,3.58
2023-03-02T08:46:06.231Z,3.63
2023-03-02T08:47:06.171Z,3.70
2023-03-02T08:48:06.165Z,3.74
2023-03-02T08:49:06.217Z,3.84
2023-03-02T08:50:06.140Z,3.92
2023-03-02T08:51:06.150Z,4.00
2023-03-02T08:52:06.188Z,4.09
2023-03-02T08:53:06.153Z,4.18
2023-03-02T08:54:06.102Z,4.24
2023-03-02T08:55:06.145Z,4.32
2023-03-02T08:56:06.068Z,4.36
2023-03-02T08:57:06.047Z,4.39
2023-03-02T08:58:06.025Z,4.45
2023-03-02T08:59:06.045Z,4.52
2023-03-02T09:00:06.519Z,4.53
2023-03-02T09:01:06.024Z,4.60
2023-03-02T09:02:05.946Z,4.64
2023-03-02T09:03:06.157Z,4.70
2023-03-02T09:04:06.040Z,4.75
2023-03-02T09:05:05.945Z,4.84
2023-03-02T09:06:05.913Z,4.86
2023-03-02T09:07:05.903Z,4.92
2023-03-02T09:08:05.893Z,4.98
2023-03-02T09:09:05.906Z,5.02
2023-03-02T09:10:05.881Z,5.05
2023-03-02T09:11:05.869Z,5.10
2023-03-02T09:12:05.832Z,5.13
2023-03-02T09:13:08.309Z,5.19
2023-03-02T09:14:05.831Z,5.23
2023-03-02T09:15:05.794Z,5.28
2023-03-02T09:16:05.789Z,5.33
2023-03-02T09:17:05.773Z,5.37
2023-03-02T09:18:05.754Z,5.40
2023-03-02T09:19:05.745Z,5.41
2023-03-02T09:20:05.749Z,5.44
2023-03-02T09:21:05.712Z,5.47
2023-03-02T09:22:05.703Z,5.52
2023-03-02T09:23:05.700Z,5.56
2023-03-02T09:24:05.679Z,5.62
2023-03-02T09:25:05.698Z,5.65
2023-03-02T09:26:05.653Z,5.69
2023-03-02T09:27:05.658Z,5.73
2023-03-02T09:28:05.624Z,5.74
2023-03-02T09:29:05.625Z,5.80
2023-03-02T09:30:05.624Z,5.84
2023-03-02T09:31:05.594Z,5.90
2023-03-02T09:32:05.761Z,5.97
2023-03-02T09:33:05.632Z,6.01
2023-03-02T09:34:05.546Z,6.10
2023-03-02T09:35:05.645Z,6.17
2023-03-02T09:36:05.531Z,6.22
2023-03-02T09:37:05.515Z,6.28
2023-03-02T09:38:05.573Z,6.31
2023-03-02T09:39:05.493Z,6.32
2023-03-02T09:40:05.558Z,6.32
2023-03-02T09:41:05.465Z,6.39
2023-03-02T09:42:05.445Z,6.41
2023-03-02T09:43:05.447Z,6.43
2023-03-02T09:44:05.425Z,6.50
2023-03-02T09:45:05.437Z,6.56
2023-03-02T09:46:05.494Z,6.59
2023-03-02T09:47:05.403Z,6.64
2023-03-02T09:48:05.382Z,6.67
2023-03-02T09:49:05.375Z,6.70
2023-03-02T09:50:05.414Z,6.74
2023-03-02T09:51:05.350Z,6.82
2023-03-02T09:52:05.318Z,6.87
2023-03-02T09:53:05.314Z,6.90
2023-03-02T09:54:05.356Z,6.92
2023-03-02T09:55:05.315Z,6.96
2023-03-02T09:56:05.297Z,7.00
2023-03-02T09:57:05.265Z,7.00
2023-03-02T09:58:05.285Z,7.01
2023-03-02T09:59:05.239Z,7.01
2023-03-02T10:00:18.212Z,7.05
2023-03-02T10:01:06.205Z,7.08
2023-03-02T10:02:05.199Z,7.10
2023-03-02T10:03:16.172Z,7.14
2023-03-02T10:04:06.338Z,7.19
2023-03-02T10:05:05.184Z,7.25
2023-03-02T10:06:05.155Z,7.28
2023-03-02T10:07:05.155Z,7.29
2023-03-02T10:08:05.164Z,7.33
2023-03-02T10:09:05.126Z,7.36
2023-03-02T10:10:05.125Z,7.37
2023-03-02T10:11:05.095Z,7.37
2023-03-02T10:12:05.085Z,7.37
2023-03-02T10:13:05.068Z,7.37
2023-03-02T10:14:05.053Z,7.39
2023-03-02T10:15:05.049Z,7.40
2023-03-02T10:16:05.052Z,7.41
2023-03-02T10:17:05.025Z,7.43
2023-03-02T10:18:05.076Z,7.51
2023-03-02T10:19:05.649Z,7.59
2023-03-02T10:20:05.038Z,7.69
2023-03-02T10:21:04.941Z,7.74
2023-03-02T10:22:05.352Z,7.78
2023-03-02T10:23:04.927Z,7.78
2023-03-02T10:24:04.916Z,7.85
2023-03-02T10:25:04.938Z,7.88
2023-03-02T10:26:04.913Z,7.91
2023-03-02T10:27:04.878Z,7.96
2023-03-02T10:28:04.863Z,8.01
2023-03-02T10:29:04.862Z,8.03
2023-03-02T10:30:04.844Z,8.09
2023-03-02T10:31:05.457Z,8.11
2023-03-02T10:32:04.988Z,8.13
2023-03-02T10:33:04.780Z,8.13
2023-03-02T10:34:04.791Z,8.17
2023-03-02T10:35:04.749Z,8.18
2023-03-02T10:36:04.825Z,8.21
2023-03-02T10:37:04.727Z,8.20
2023-03-02T10:38:04.738Z,8.20
2023-03-02T10:39:04.710Z,8.24
2023-03-02T10:40:04.711Z,8.31
2023-03-02T10:41:04.748Z,8.36
2023-03-02T10:42:04.734Z,8.39
2023-03-02T10:43:04.656Z,8.42
2023-03-02T10:44:04.632Z,8.45
2023-03-02T10:45:04.620Z,8.46
2023-03-02T10:46:04.725Z,8.50
2023-03-02T10:47:04.592Z,8.54
2023-03-02T10:48:04.594Z,8.57
2023-03-02T10:49:04.570Z,8.60
2023-03-02T10:50:04.562Z,8.63
2023-03-02T10:51:04.579Z,8.64
2023-03-02T10:52:04.669Z,8.63
2023-03-02T10:53:05.330Z,8.63
2023-03-02T10:54:04.509Z,8.64
2023-03-02T10:55:04.481Z,8.68
2023-03-02T10:56:04.505Z,8.66
2023-03-02T10:57:04.481Z,8.69
2023-03-02T10:58:04.469Z,8.72
2023-03-02T10:59:04.440Z,8.75
2023-03-02T11:00:04.436Z,8.79
2023-03-02T11:01:04.434Z,8.86
2023-03-02T11:02:04.403Z,8.93
2023-03-02T11:03:04.401Z,8.96
2023-03-02T11:04:04.409Z,9.02
2023-03-02T11:05:04.367Z,9.09
2023-03-02T11:06:04.370Z,9.12
2023-03-02T11:07:04.348Z,9.15
2023-03-02T11:08:04.324Z,9.19
2023-03-02T11:09:04.305Z,9.21
2023-03-02T11:10:04.301Z,9.26
2023-03-02T11:11:04.303Z,9.27
2023-03-02T11:12:04.309Z,9.29
2023-03-02T11:13:04.239Z,9.30
2023-03-02T11:14:04.230Z,9.34
2023-03-02T11:15:04.230Z,9.37
2023-03-02T11:16:04.280Z,9.40
2023-03-02T11:17:04.231Z,9.42
2023-03-02T11:18:04.208Z,9.42
2023-03-02T11:19:04.171Z,9.42
2023-03-02T11:20:04.193Z,9.45
2023-03-02T11:21:04.171Z,9.48
2023-03-02T11:22:04.201Z,9.51
2023-03-02T11:23:04.123Z,9.54
2023-03-02T11:24:04.111Z,9.56
2023-03-02T11:25:04.110Z,9.59
2023-03-02T11:26:04.132Z,9.62
2023-03-02T11:27:04.071Z,9.64
2023-03-02T11:28:04.066Z,9.69
2023-03-02T11:29:04.037Z,9.72
2023-03-02T11:30:04.025Z,9.76
2023-03-02T11:31:04.180Z,9.82
2023-03-02T11:32:04.097Z,9.90
2023-03-02T11:33:04.004Z,9.97
2023-03-02T11:34:11.583Z,10.02
2023-03-02T11:35:04.961Z,10.06
2023-03-02T11:36:03.970Z,10.09
2023-03-02T11:37:03.938Z,10.10
2023-03-02T11:38:03.916Z,10.12
2023-03-02T11:39:03.904Z,10.13
2023-03-02T11:40:03.899Z,10.15
2023-03-02T11:41:03.868Z,10.18
2023-03-02T11:42:03.895Z,10.15
2023-03-02T11:43:03.854Z,10.17
2023-03-02T11:44:03.840Z,10.15
2023-03-02T11:45:03.824Z,10.15
2023-03-02T11:46:10.901Z,10.15
2023-03-02T11:47:04.912Z,10.15
2023-03-02T11:48:04.251Z,10.15
2023-03-02T11:49:03.776Z,10.18
2023-03-02T11:50:03.774Z,10.23
2023-03-02T11:51:03.746Z,10.28
2023-03-02T11:52:03.764Z,10.34
2023-03-02T11:53:10.872Z,10.38
2023-03-02T11:54:03.702Z,10.43
2023-03-02T11:55:03.695Z,10.48
2023-03-02T11:56:03.687Z,10.51
2023-03-02T11:57:03.692Z,10.53
2023-03-02T11:58:03.675Z,10.57
2023-03-02T11:59:03.643Z,10.58
2023-03-02T12:00:03.640Z,10.58
2023-03-02T12:01:03.625Z,10.61
2023-03-02T12:02:03.687Z,10.64
2023-03-02T12:03:03.617Z,10.65
2023-03-02T12:05:03.644Z,10.69
2023-03-02T12:06:05.255Z,10.69
2023-03-02T12:07:03.545Z,10.72
2023-03-02T12:08:03.554Z,10.77
2023-03-02T12:09:03.556Z,10.79
2023-03-02T12:10:03.503Z,10.80
2023-03-02T12:11:03.495Z,10.79
2023-03-02T12:12:04.895Z,10.79
2023-03-02T12:13:03.478Z,10.80
2023-03-02T12:14:03.472Z,10.80
2023-03-02T12:15:03.455Z,10.77
2023-03-02T12:16:03.509Z,10.79
2023-03-02T12:17:03.417Z,10.83
2023-03-02T12:18:03.464Z,10.90
2023-03-02T12:19:03.378Z,10.92
2023-03-02T12:20:03.366Z,10.97
2023-03-02T12:21:03.335Z,11.02
2023-03-02T12:22:03.357Z,11.04
2023-03-02T12:23:03.346Z,11.07
2023-03-02T12:24:03.335Z,11.12
2023-03-02T12:25:03.318Z,11.10
2023-03-02T12:26:03.310Z,11.10
2023-03-02T12:27:03.278Z,11.15
2023-03-02T12:28:03.299Z,11.15
2023-03-02T12:29:03.267Z,11.20
2023-03-02T12:30:03.245Z,11.25
2023-03-02T12:31:03.237Z,11.31
2023-03-02T12:32:03.366Z,11.35
2023-03-02T12:33:03.224Z,11.40
2023-03-02T12:34:03.197Z,11.43
2023-03-02T12:35:03.188Z,11.45
2023-03-02T12:36:03.177Z,11.43
2023-03-02T12:37:03.228Z,11.45
2023-03-02T12:38:03.295Z,11.48
2023-03-02T12:39:03.137Z,11.51
2023-03-02T12:40:03.448Z,11.55
2023-03-02T12:41:03.109Z,11.60
2023-03-02T12:42:03.104Z,11.63
2023-03-02T12:43:03.111Z,11.71
2023-03-02T12:44:03.121Z,11.81
2023-03-02T12:45:03.105Z,11.91
2023-03-02T12:46:03.135Z,12.00
2023-03-02T12:47:04.114Z,12.10
2023-03-02T12:48:03.532Z,12.20
2023-03-02T12:49:03.709Z,12.29
2023-03-02T12:50:02.992Z,12.35
2023-03-02T12:51:03.010Z,12.40
2023-03-02T12:52:03.928Z,12.43
2023-03-02T12:53:02.936Z,12.39
2023-03-02T12:54:02.938Z,12.36
2023-03-02T12:55:02.899Z,12.39
2023-03-02T12:56:02.950Z,12.36
2023-03-02T12:57:02.906Z,12.39
2023-03-02T12:58:02.897Z,12.44
2023-03-02T12:59:02.874Z,12.51
2023-03-02T13:00:02.867Z,12.54
2023-03-02T13:01:02.861Z,12.47
2023-03-02T13:02:02.850Z,12.33
2023-03-02T13:03:02.844Z,12.23
2023-03-02T13:04:02.851Z,12.17
2023-03-02T13:05:02.809Z,12.14
2023-03-02T13:06:02.847Z,12.12
2023-03-02T13:07:02.810Z,12.08
2023-03-02T13:08:02.781Z,12.05
2023-03-02T13:09:02.749Z,12.05